Nyingchi, China
Current Conditions -  °F | °C
As of 4:20 AM on Wednesday 22 Oct 2014 (Local Time) from VGHS Reporting Station
Haze Haze  
Wind Chill: 77°   Ceiling: Unl
Heat Index: 79°   Visibility: 2.5mi
Dew Point: 68°   Wind: 0mph
Humidity: 74%   Direction: NA
Pressure: 29.88"   Gusts: NA
Location:  29.57°N, 94.47°E
Report Text: VGHS 212020Z 00000KT 4000 HZ NSC 25/20 Q1012 NOSIG
Loading
Personal Weather Stations






























Interactive Weather Map
Tropical Storm Tracking
New forecast layout! Learn more

10-Day Weather Forecast

Advertisements
Track Severe Weather on mobile